createdAt,value
2023-05-07T00:01:58.394Z,36.85
2023-05-07T00:04:29.302Z,36.90
2023-05-07T00:07:00.480Z,36.94
2023-05-07T00:09:31.162Z,37.02
2023-05-07T00:12:02.138Z,37.13
2023-05-07T00:14:32.797Z,37.18
2023-05-07T00:17:03.638Z,37.28
2023-05-07T00:19:34.349Z,37.27
2023-05-07T00:22:05.136Z,37.34
2023-05-07T00:24:35.892Z,37.43
2023-05-07T00:27:06.720Z,37.48
2023-05-07T00:29:37.882Z,37.55
2023-05-07T00:32:08.746Z,37.68
2023-05-07T00:34:40.622Z,37.71
2023-05-07T00:37:12.977Z,37.75
2023-05-07T00:39:43.557Z,37.90
2023-05-07T00:42:14.314Z,37.93
2023-05-07T00:44:45.108Z,38.05
2023-05-07T00:47:15.935Z,38.14
2023-05-07T00:49:46.835Z,38.08
2023-05-07T00:52:18.056Z,38.21
2023-05-07T00:54:48.931Z,38.25
2023-05-07T00:57:19.589Z,38.37
2023-05-07T00:59:50.360Z,38.48
2023-05-07T01:02:21.015Z,38.48
2023-05-07T01:04:51.909Z,38.63
2023-05-07T01:07:23.235Z,38.76
2023-05-07T01:09:54.030Z,38.80
2023-05-07T01:12:24.842Z,38.89
2023-05-07T01:14:55.560Z,38.87
2023-05-07T01:17:26.289Z,39.07
2023-05-07T01:19:57.032Z,39.03
2023-05-07T01:22:31.115Z,39.30
2023-05-07T01:25:02.783Z,39.23
2023-05-07T01:27:34.408Z,39.34
2023-05-07T01:30:05.450Z,39.35
2023-05-07T01:32:37.846Z,39.52
2023-05-07T01:35:09.930Z,39.54
2023-05-07T01:37:40.773Z,39.50
2023-05-07T01:40:12.456Z,39.77
2023-05-07T01:42:43.562Z,39.55
2023-05-07T01:45:14.536Z,39.73
2023-05-07T01:47:45.142Z,39.81
2023-05-07T01:50:15.943Z,40.02
2023-05-07T01:52:46.863Z,39.88
2023-05-07T01:55:17.459Z,40.01
2023-05-07T01:57:48.105Z,40.12
2023-05-07T02:00:20.237Z,40.13
2023-05-07T02:02:51.181Z,40.20
2023-05-07T02:05:22.129Z,40.11
2023-05-07T02:07:52.936Z,40.04
2023-05-07T02:10:23.799Z,40.13
2023-05-07T02:12:54.599Z,40.22
2023-05-07T02:15:25.190Z,40.29
2023-05-07T02:18:02.265Z,40.31
2023-05-07T02:20:33.202Z,40.35
2023-05-07T02:23:03.720Z,40.46
2023-05-07T02:25:34.420Z,40.58
2023-05-07T02:28:05.208Z,40.42
2023-05-07T02:30:36.022Z,40.59
2023-05-07T02:33:07.549Z,40.54
2023-05-07T02:35:38.442Z,40.68
2023-05-07T02:38:11.737Z,40.61
2023-05-07T02:40:42.758Z,40.61
2023-05-07T02:43:13.419Z,40.76
2023-05-07T02:45:44.939Z,40.71
2023-05-07T02:48:15.626Z,40.92
2023-05-07T02:50:46.430Z,40.94
2023-05-07T02:53:17.182Z,41.19
2023-05-07T02:55:47.996Z,41.14
2023-05-07T02:58:18.506Z,41.16
2023-05-07T03:00:49.455Z,41.43
2023-05-07T03:03:20.404Z,41.45
2023-05-07T03:05:51.098Z,41.53
2023-05-07T03:08:21.817Z,41.58
2023-05-07T03:10:52.592Z,41.54
2023-05-07T03:13:23.259Z,41.41
2023-05-07T03:15:54.070Z,41.26
2023-05-07T03:18:24.922Z,41.51
2023-05-07T03:20:55.748Z,41.63
2023-05-07T03:23:26.539Z,41.68
2023-05-07T03:25:57.331Z,41.79
2023-05-07T03:28:28.161Z,41.91
2023-05-07T03:30:58.858Z,41.86
2023-05-07T03:33:29.605Z,41.91
2023-05-07T03:36:00.437Z,41.89
2023-05-07T03:38:31.094Z,41.93
2023-05-07T03:41:01.866Z,41.89
2023-05-07T03:43:32.566Z,41.75
2023-05-07T03:46:03.506Z,41.56
2023-05-07T03:48:34.096Z,41.65
2023-05-07T03:51:04.781Z,41.48
2023-05-07T03:53:35.554Z,41.60
2023-05-07T03:56:06.491Z,41.61
2023-05-07T03:58:37.365Z,41.69
2023-05-07T04:01:08.654Z,41.71
2023-05-07T04:03:39.594Z,41.70
2023-05-07T04:06:10.346Z,41.86
2023-05-07T04:08:41.021Z,41.97
2023-05-07T04:11:11.851Z,41.93
2023-05-07T04:13:42.538Z,41.99
2023-05-07T04:16:13.161Z,42.08
2023-05-07T04:18:43.938Z,41.88
2023-05-07T04:21:17.951Z,41.85
2023-05-07T04:23:48.776Z,41.68
2023-05-07T04:26:19.457Z,41.66
2023-05-07T04:28:50.119Z,41.78
2023-05-07T04:31:21.021Z,41.80
2023-05-07T04:33:53.811Z,41.88
2023-05-07T04:36:25.167Z,41.82
2023-05-07T04:38:55.720Z,41.72
2023-05-07T04:41:26.515Z,41.64
2023-05-07T04:43:58.061Z,41.80
2023-05-07T04:46:28.964Z,41.79
2023-05-07T04:48:59.770Z,41.72
2023-05-07T04:51:30.449Z,41.82
2023-05-07T04:54:01.146Z,41.90
2023-05-07T04:56:31.964Z,41.79
2023-05-07T04:59:02.724Z,41.66
2023-05-07T05:01:33.224Z,41.85
2023-05-07T05:04:04.330Z,41.92
2023-05-07T05:06:35.050Z,41.83
2023-05-07T05:09:06.078Z,41.76
2023-05-07T05:11:36.664Z,41.63
2023-05-07T05:14:07.297Z,41.72
2023-05-07T05:16:38.298Z,41.69
2023-05-07T05:19:09.011Z,41.76
2023-05-07T05:21:39.629Z,41.73
2023-05-07T05:24:10.420Z,41.51
2023-05-07T05:26:41.259Z,41.40
2023-05-07T05:29:11.902Z,41.42
2023-05-07T05:31:42.910Z,41.39
2023-05-07T05:34:13.819Z,41.31
2023-05-07T05:36:44.433Z,41.16
2023-05-07T05:39:15.220Z,41.13
2023-05-07T05:41:46.007Z,41.14
2023-05-07T05:44:16.627Z,41.29
2023-05-07T05:46:47.415Z,41.31
2023-05-07T05:49:18.131Z,41.46
2023-05-07T05:51:48.835Z,41.38
2023-05-07T05:54:19.520Z,41.38
2023-05-07T05:56:50.471Z,41.32
2023-05-07T05:59:21.219Z,41.21
2023-05-07T06:01:52.296Z,41.10
2023-05-07T06:04:22.925Z,41.15
2023-05-07T06:06:53.727Z,40.94
2023-05-07T06:09:24.378Z,40.83
2023-05-07T06:11:55.072Z,40.77
2023-05-07T06:14:25.873Z,40.75
2023-05-07T06:16:56.505Z,40.76
2023-05-07T06:19:29.268Z,40.63
2023-05-07T06:22:02.339Z,40.62
2023-05-07T06:24:32.982Z,40.56
2023-05-07T06:27:03.780Z,40.56
2023-05-07T06:29:34.856Z,40.40
2023-05-07T06:32:11.653Z,40.43
2023-05-07T06:34:42.385Z,40.30
2023-05-07T06:37:13.098Z,40.14
2023-05-07T06:39:43.884Z,39.94
2023-05-07T06:42:14.513Z,39.79
2023-05-07T06:44:45.233Z,39.78
2023-05-07T06:47:16.530Z,39.87
2023-05-07T06:49:47.238Z,39.78
2023-05-07T06:52:17.948Z,39.88
2023-05-07T06:54:48.703Z,39.60
2023-05-07T06:57:19.402Z,39.55
2023-05-07T06:59:50.132Z,39.29
2023-05-07T07:02:21.028Z,39.16
2023-05-07T07:04:51.727Z,38.89
2023-05-07T07:07:22.486Z,38.88
2023-05-07T07:09:53.556Z,38.63
2023-05-07T07:12:26.139Z,38.58
2023-05-07T07:14:56.773Z,38.48
2023-05-07T07:17:27.562Z,38.33
2023-05-07T07:19:58.237Z,37.87
2023-05-07T07:22:28.956Z,37.91
2023-05-07T07:24:59.720Z,37.84
2023-05-07T07:27:30.662Z,37.69
2023-05-07T07:30:01.525Z,37.49
2023-05-07T07:32:33.785Z,37.39
2023-05-07T07:35:04.764Z,37.11
2023-05-07T07:37:35.675Z,37.08
2023-05-07T07:40:07.541Z,36.99
2023-05-07T07:42:38.181Z,36.77
2023-05-07T07:45:10.322Z,36.84
2023-05-07T07:47:41.433Z,36.87
2023-05-07T07:50:19.372Z,36.85
2023-05-07T07:52:53.120Z,36.62
2023-05-07T07:55:25.134Z,36.46
2023-05-07T07:57:56.030Z,36.39
2023-05-07T08:00:26.844Z,36.17
2023-05-07T08:02:57.812Z,36.13
2023-05-07T08:05:28.464Z,36.19
2023-05-07T08:07:59.750Z,35.70
2023-05-07T08:10:30.422Z,35.92
2023-05-07T08:13:01.141Z,35.89
2023-05-07T08:15:32.114Z,35.79
2023-05-07T08:18:03.330Z,35.95
2023-05-07T08:20:34.617Z,35.74
2023-05-07T08:23:05.521Z,35.61
2023-05-07T08:25:36.661Z,35.53
2023-05-07T08:28:09.771Z,35.69
2023-05-07T08:30:40.826Z,35.34
2023-05-07T08:33:12.368Z,35.08
2023-05-07T08:35:43.301Z,35.09
2023-05-07T08:38:14.175Z,35.08
2023-05-07T08:40:45.086Z,34.93
2023-05-07T08:43:16.618Z,34.80
2023-05-07T08:45:47.804Z,34.47
2023-05-07T08:48:19.062Z,34.57
2023-05-07T08:50:49.695Z,34.62
2023-05-07T08:53:20.629Z,34.44
2023-05-07T08:55:51.377Z,34.40
2023-05-07T08:58:22.029Z,34.21
2023-05-07T09:00:52.743Z,34.15
2023-05-07T09:03:23.707Z,33.88
2023-05-07T09:05:55.096Z,33.79
2023-05-07T09:08:28.084Z,33.57
2023-05-07T09:10:58.863Z,33.33
2023-05-07T09:13:29.738Z,33.29
2023-05-07T09:16:01.792Z,32.89
2023-05-07T09:18:32.597Z,32.69
2023-05-07T09:21:03.133Z,32.73
2023-05-07T09:23:33.746Z,32.58
2023-05-07T09:26:05.593Z,32.82
2023-05-07T09:28:37.062Z,32.28
2023-05-07T09:31:07.950Z,32.34
2023-05-07T09:33:38.734Z,32.15
2023-05-07T09:36:11.165Z,31.90
2023-05-07T09:38:41.917Z,31.44
2023-05-07T09:41:13.444Z,31.70
2023-05-07T09:43:44.146Z,31.36
2023-05-07T09:46:15.817Z,31.45
2023-05-07T09:48:46.872Z,31.23
2023-05-07T09:51:24.060Z,31.44
2023-05-07T09:53:55.011Z,31.07
2023-05-07T09:56:26.545Z,30.67
2023-05-07T09:58:57.396Z,30.73
2023-05-07T10:01:28.427Z,30.37
2023-05-07T10:03:59.507Z,30.46
2023-05-07T10:06:30.246Z,30.28
2023-05-07T10:09:00.957Z,30.36
2023-05-07T10:11:31.703Z,29.90
2023-05-07T10:14:05.022Z,29.77
2023-05-07T10:16:37.816Z,29.95
2023-05-07T10:19:10.921Z,29.76
2023-05-07T10:21:42.327Z,29.72
2023-05-07T10:24:17.433Z,29.26
2023-05-07T10:26:49.464Z,28.82
2023-05-07T10:29:21.459Z,28.70
2023-05-07T10:31:53.476Z,29.01
2023-05-07T10:34:25.720Z,29.14
2023-05-07T10:36:56.406Z,29.27
2023-05-07T10:39:27.181Z,28.97
2023-05-07T10:41:57.852Z,28.69
2023-05-07T10:44:29.725Z,28.45
2023-05-07T10:47:10.709Z,28.68
2023-05-07T10:49:56.376Z,28.27
2023-05-07T10:52:27.896Z,28.30
2023-05-07T10:55:15.807Z,28.04
2023-05-07T10:57:46.527Z,28.08
2023-05-07T11:00:39.104Z,27.85
2023-05-07T11:03:10.306Z,27.70
2023-05-07T11:05:41.580Z,27.42
2023-05-07T11:08:12.534Z,27.32
2023-05-07T11:10:52.460Z,27.23
2023-05-07T11:13:43.157Z,27.33
2023-05-07T11:16:24.189Z,27.28
2023-05-07T11:18:55.968Z,27.24
2023-05-07T11:21:37.010Z,26.95
2023-05-07T11:24:08.336Z,26.86
2023-05-07T11:26:46.695Z,26.94
2023-05-07T11:29:20.080Z,26.88
2023-05-07T11:31:53.141Z,26.98
2023-05-07T11:34:24.827Z,26.60
2023-05-07T11:36:56.250Z,26.79
2023-05-07T11:39:27.751Z,26.51
2023-05-07T11:41:59.149Z,26.17
2023-05-07T11:44:42.621Z,25.93
2023-05-07T11:47:13.571Z,25.85
2023-05-07T11:49:45.361Z,25.76
2023-05-07T11:52:16.790Z,25.78
2023-05-07T11:54:52.290Z,25.96
2023-05-07T11:57:23.205Z,25.73
2023-05-07T11:59:56.501Z,25.67
2023-05-07T12:02:27.432Z,25.62
2023-05-07T12:04:58.379Z,25.53
2023-05-07T12:07:29.259Z,25.32
2023-05-07T12:10:00.060Z,25.38
2023-05-07T12:12:30.698Z,25.34
2023-05-07T12:15:01.421Z,25.31
2023-05-07T12:17:32.265Z,25.29
2023-05-07T12:20:04.042Z,25.29
2023-05-07T12:22:34.663Z,25.05
2023-05-07T12:25:05.538Z,25.25
2023-05-07T12:27:38.909Z,25.43
2023-05-07T12:30:11.406Z,25.02
2023-05-07T12:32:42.237Z,24.90
2023-05-07T12:35:13.923Z,24.78
2023-05-07T12:37:45.873Z,24.59
2023-05-07T12:40:19.514Z,24.68
2023-05-07T12:42:52.428Z,24.56
2023-05-07T12:45:23.446Z,24.36
2023-05-07T12:47:54.304Z,24.30
2023-05-07T12:50:25.360Z,24.16
2023-05-07T12:52:56.442Z,24.47
2023-05-07T12:55:29.203Z,24.59
2023-05-07T12:58:04.564Z,24.57
2023-05-07T13:00:39.061Z,24.43
2023-05-07T13:03:09.856Z,24.55
2023-05-07T13:05:41.200Z,24.39
2023-05-07T13:08:12.130Z,24.27
2023-05-07T13:10:42.845Z,23.90
2023-05-07T13:13:13.535Z,23.82
2023-05-07T13:15:44.130Z,23.96
2023-05-07T13:18:14.959Z,24.23
2023-05-07T13:20:45.853Z,24.21
2023-05-07T13:23:16.452Z,24.05
2023-05-07T13:25:47.154Z,23.91
2023-05-07T13:28:17.852Z,23.89
2023-05-07T13:30:48.452Z,23.97
2023-05-07T13:33:19.011Z,23.98
2023-05-07T13:35:49.823Z,24.10
2023-05-07T13:38:20.907Z,24.14
2023-05-07T13:40:52.302Z,23.89
2023-05-07T13:43:23.097Z,23.88
2023-05-07T13:45:53.840Z,23.88
2023-05-07T13:48:24.583Z,23.82
2023-05-07T13:50:55.368Z,23.87
2023-05-07T13:53:26.312Z,23.60
2023-05-07T13:55:56.977Z,23.71
2023-05-07T13:58:27.691Z,23.88
2023-05-07T14:00:58.381Z,23.35
2023-05-07T14:03:29.223Z,23.73
2023-05-07T14:06:01.092Z,23.70
2023-05-07T14:08:32.213Z,23.64
2023-05-07T14:11:03.010Z,23.68
2023-05-07T14:13:35.455Z,23.44
2023-05-07T14:16:06.642Z,23.40
2023-05-07T14:18:38.318Z,23.31
2023-05-07T14:21:10.896Z,23.45
2023-05-07T14:23:41.894Z,23.61
2023-05-07T14:26:12.712Z,23.55
2023-05-07T14:28:47.368Z,23.34
2023-05-07T14:31:18.321Z,23.28
2023-05-07T14:33:50.842Z,23.43
2023-05-07T14:36:23.908Z,23.59
2023-05-07T14:38:54.960Z,23.50
2023-05-07T14:41:25.833Z,23.61
2023-05-07T14:43:56.467Z,23.46
2023-05-07T14:46:27.273Z,23.39
2023-05-07T14:48:58.308Z,23.56
2023-05-07T14:51:29.798Z,23.58
2023-05-07T14:54:01.494Z,23.57
2023-05-07T14:56:32.232Z,23.74
2023-05-07T14:59:03.074Z,23.71
2023-05-07T15:01:33.783Z,23.66
2023-05-07T15:04:04.780Z,23.80
2023-05-07T15:06:35.668Z,23.75
2023-05-07T15:09:06.473Z,24.00
2023-05-07T15:11:37.159Z,23.98
2023-05-07T15:14:07.927Z,24.00
2023-05-07T15:16:38.793Z,24.07
2023-05-07T15:19:09.607Z,24.09
2023-05-07T15:21:40.306Z,24.05
2023-05-07T15:24:11.285Z,24.33
2023-05-07T15:26:41.994Z,24.23
2023-05-07T15:29:12.836Z,24.35
2023-05-07T15:31:43.813Z,24.37
2023-05-07T15:34:15.960Z,24.42
2023-05-07T15:36:46.677Z,24.42
2023-05-07T15:39:17.561Z,24.85
2023-05-07T15:41:48.420Z,24.71
2023-05-07T15:44:19.135Z,24.73
2023-05-07T15:46:49.774Z,24.80
2023-05-07T15:49:20.502Z,24.83
2023-05-07T15:51:51.897Z,24.99
2023-05-07T15:54:24.096Z,25.09
2023-05-07T15:56:55.774Z,25.25
2023-05-07T15:59:26.723Z,25.18
2023-05-07T16:01:57.365Z,25.24
2023-05-07T16:04:28.320Z,25.43
2023-05-07T16:06:59.014Z,25.44
2023-05-07T16:09:29.995Z,25.48
2023-05-07T16:12:01.069Z,25.68
2023-05-07T16:14:31.777Z,25.84
2023-05-07T16:17:02.569Z,25.83
2023-05-07T16:19:33.416Z,26.01
2023-05-07T16:22:04.214Z,25.89
2023-05-07T16:24:34.767Z,25.94
2023-05-07T16:27:06.819Z,25.96
2023-05-07T16:29:37.547Z,26.26
2023-05-07T16:32:08.309Z,26.35
2023-05-07T16:34:39.150Z,26.37
2023-05-07T16:37:09.779Z,26.37
2023-05-07T16:39:40.605Z,26.48
2023-05-07T16:42:11.470Z,26.66
2023-05-07T16:44:42.075Z,26.74
2023-05-07T16:47:12.847Z,26.80
2023-05-07T16:49:43.535Z,27.00
2023-05-07T16:52:14.153Z,27.00
2023-05-07T16:54:44.850Z,26.98
2023-05-07T16:57:15.549Z,27.10
2023-05-07T16:59:46.182Z,27.06
2023-05-07T17:02:17.022Z,27.13
2023-05-07T17:04:49.535Z,27.19
2023-05-07T17:07:20.382Z,27.32
2023-05-07T17:09:51.345Z,27.65
2023-05-07T17:12:22.757Z,27.51
2023-05-07T17:14:53.711Z,27.58
2023-05-07T17:17:39.131Z,27.76
2023-05-07T17:20:19.930Z,27.85
2023-05-07T17:22:54.245Z,27.89
2023-05-07T17:25:45.643Z,28.34
2023-05-07T17:28:42.673Z,28.33
2023-05-07T17:31:13.610Z,28.28
2023-05-07T17:33:44.451Z,28.40
2023-05-07T17:36:15.256Z,28.40
2023-05-07T17:38:46.227Z,28.61
2023-05-07T17:41:18.595Z,28.80
2023-05-07T17:43:51.317Z,29.10
2023-05-07T17:46:22.191Z,29.10
2023-05-07T17:48:53.296Z,29.22
2023-05-07T17:51:26.169Z,29.28
2023-05-07T17:53:57.514Z,29.35
2023-05-07T17:56:28.280Z,29.57
2023-05-07T17:58:59.729Z,29.69
2023-05-07T18:01:31.357Z,29.65
2023-05-07T18:04:02.177Z,29.87
2023-05-07T18:06:33.152Z,29.94
2023-05-07T18:09:05.054Z,30.02
2023-05-07T18:11:39.828Z,29.99
2023-05-07T18:14:15.077Z,30.16
2023-05-07T18:17:01.935Z,30.28
2023-05-07T18:19:34.790Z,30.31
2023-05-07T18:22:34.180Z,30.41
2023-05-07T18:25:32.203Z,30.67
2023-05-07T18:28:16.083Z,30.66
2023-05-07T18:30:52.009Z,30.73
2023-05-07T18:33:28.220Z,30.88
2023-05-07T18:36:02.002Z,31.03
2023-05-07T18:38:49.550Z,31.16
2023-05-07T18:41:30.725Z,31.24
2023-05-07T18:44:03.182Z,31.39
2023-05-07T18:46:51.725Z,31.61
2023-05-07T18:49:26.000Z,31.63
2023-05-07T18:51:56.725Z,31.72
2023-05-07T18:54:32.388Z,31.79
2023-05-07T18:57:03.476Z,31.88
2023-05-07T18:59:34.300Z,31.93
2023-05-07T19:02:22.091Z,31.99
2023-05-07T19:05:07.098Z,32.18
2023-05-07T19:07:56.068Z,32.33
2023-05-07T19:10:39.863Z,32.36
2023-05-07T19:13:25.012Z,32.50
2023-05-07T19:16:47.354Z,32.41
2023-05-07T19:19:26.456Z,32.60
2023-05-07T19:21:58.156Z,32.65
2023-05-07T19:24:28.392Z,32.77
2023-05-07T19:27:01.865Z,32.97
2023-05-07T19:29:29.845Z,32.93
2023-05-07T19:32:02.620Z,32.92
2023-05-07T19:34:30.689Z,33.18
2023-05-07T19:36:58.798Z,33.12
2023-05-07T19:39:27.228Z,33.20
2023-05-07T19:41:55.342Z,33.29
2023-05-07T19:44:24.461Z,33.47
2023-05-07T19:46:52.667Z,33.49
2023-05-07T19:49:20.696Z,33.45
2023-05-07T19:51:48.707Z,33.70
2023-05-07T19:54:16.923Z,33.66
2023-05-07T19:56:51.085Z,33.72
2023-05-07T19:59:24.931Z,33.81
2023-05-07T20:01:53.409Z,33.82
2023-05-07T20:04:21.717Z,33.92
2023-05-07T20:06:50.219Z,34.03
2023-05-07T20:09:18.549Z,33.97
2023-05-07T20:11:46.837Z,33.99
2023-05-07T20:14:16.864Z,34.00
2023-05-07T20:16:45.459Z,34.10
2023-05-07T20:19:14.740Z,34.19
2023-05-07T20:21:43.067Z,34.16
2023-05-07T20:24:13.053Z,34.19
2023-05-07T20:26:40.962Z,34.26
2023-05-07T20:29:08.930Z,34.23
2023-05-07T20:31:37.121Z,34.34
2023-05-07T20:34:07.542Z,34.41
2023-05-07T20:36:38.599Z,34.53
2023-05-07T20:39:07.424Z,34.50
2023-05-07T20:41:35.440Z,34.73
2023-05-07T20:44:03.954Z,34.82
2023-05-07T20:46:32.088Z,34.86
2023-05-07T20:49:00.222Z,34.96
2023-05-07T20:51:28.162Z,35.10
2023-05-07T20:53:56.125Z,35.04
2023-05-07T20:56:23.874Z,35.18
2023-05-07T20:58:51.936Z,35.07
2023-05-07T21:01:19.991Z,35.23
2023-05-07T21:03:48.870Z,35.08
2023-05-07T21:06:16.928Z,35.31
2023-05-07T21:08:44.807Z,35.34
2023-05-07T21:11:14.498Z,35.33
2023-05-07T21:13:42.247Z,35.39
2023-05-07T21:16:10.390Z,35.50
2023-05-07T21:18:38.408Z,35.72
2023-05-07T21:21:08.134Z,35.72
2023-05-07T21:23:36.121Z,36.00
2023-05-07T21:26:04.148Z,35.96
2023-05-07T21:28:34.324Z,36.06
2023-05-07T21:31:02.194Z,36.09
2023-05-07T21:33:30.252Z,36.28
2023-05-07T21:35:58.282Z,36.30
2023-05-07T21:38:26.487Z,36.18
2023-05-07T21:40:54.391Z,36.33
2023-05-07T21:43:22.318Z,36.32
2023-05-07T21:45:50.460Z,36.33
2023-05-07T21:48:20.686Z,36.50
2023-05-07T21:50:48.536Z,36.59
2023-05-07T21:53:16.417Z,36.56
2023-05-07T21:55:44.434Z,36.80
2023-05-07T21:58:12.474Z,36.96
2023-05-07T22:00:40.592Z,36.92
2023-05-07T22:03:08.659Z,37.09
2023-05-07T22:05:36.722Z,37.29
2023-05-07T22:08:05.168Z,37.16
2023-05-07T22:10:33.161Z,37.38
2023-05-07T22:13:01.176Z,37.40
2023-05-07T22:15:29.017Z,37.46
2023-05-07T22:17:57.107Z,37.59
2023-05-07T22:20:25.145Z,37.62
2023-05-07T22:22:53.426Z,37.69
2023-05-07T22:25:21.769Z,37.81
2023-05-07T22:27:50.707Z,37.78
2023-05-07T22:30:18.702Z,38.00
2023-05-07T22:32:46.645Z,38.01
2023-05-07T22:35:14.570Z,38.01
2023-05-07T22:37:42.741Z,38.13
2023-05-07T22:40:11.844Z,38.17
2023-05-07T22:42:39.892Z,38.29
2023-05-07T22:45:09.051Z,38.41
2023-05-07T22:47:37.175Z,38.46
2023-05-07T22:50:06.261Z,38.57
2023-05-07T22:52:34.330Z,38.62
2023-05-07T22:55:02.316Z,38.71
2023-05-07T22:57:30.326Z,38.71
2023-05-07T22:59:58.387Z,38.86
2023-05-07T23:02:28.138Z,38.95
2023-05-07T23:04:58.074Z,38.99
2023-05-07T23:07:25.907Z,39.15
2023-05-07T23:09:53.878Z,39.10
2023-05-07T23:12:21.769Z,39.15
2023-05-07T23:14:49.824Z,39.21
2023-05-07T23:17:17.988Z,39.25
2023-05-07T23:19:46.029Z,39.30
2023-05-07T23:22:15.323Z,39.31
2023-05-07T23:24:43.385Z,39.44
2023-05-07T23:27:11.359Z,39.34
2023-05-07T23:29:39.299Z,39.39
2023-05-07T23:32:07.212Z,39.50
2023-05-07T23:34:34.955Z,39.59
2023-05-07T23:37:02.848Z,39.65
2023-05-07T23:39:30.956Z,39.75
2023-05-07T23:41:58.925Z,39.78
2023-05-07T23:44:26.784Z,39.74
2023-05-07T23:46:54.874Z,39.82
2023-05-07T23:49:22.830Z,39.79
2023-05-07T23:51:50.835Z,39.79
2023-05-07T23:54:18.995Z,39.94
2023-05-07T23:56:46.832Z,40.01
2023-05-07T23:59:14.909Z,40.03
